createdAt,value
2023-04-22T00:00:09.192Z,8.07
2023-04-22T00:03:23.632Z,8.03
2023-04-22T00:06:36.433Z,7.94
2023-04-22T00:09:49.568Z,7.93
2023-04-22T00:13:01.576Z,7.96
2023-04-22T00:16:15.043Z,7.89
2023-04-22T00:19:28.350Z,7.85
2023-04-22T00:22:41.015Z,7.92
2023-04-22T00:25:53.365Z,7.80
2023-04-22T00:29:05.784Z,7.70
2023-04-22T00:32:18.079Z,7.74
2023-04-22T00:35:30.181Z,7.73
2023-04-22T00:38:42.049Z,7.67
2023-04-22T00:41:54.398Z,7.63
2023-04-22T00:45:06.753Z,7.58
2023-04-22T00:48:20.124Z,7.54
2023-04-22T00:51:32.658Z,7.33
2023-04-22T00:54:45.086Z,7.19
2023-04-22T00:58:00.602Z,7.28
2023-04-22T01:01:13.305Z,7.34
2023-04-22T01:04:26.919Z,7.13
2023-04-22T01:07:40.554Z,6.98
2023-04-22T01:10:52.968Z,7.16
2023-04-22T01:14:05.293Z,7.18
2023-04-22T01:17:22.336Z,7.21
2023-04-22T01:20:36.118Z,7.06
2023-04-22T01:23:48.495Z,7.03
2023-04-22T01:27:02.296Z,7.05
2023-04-22T01:30:17.067Z,7.08
2023-04-22T01:33:29.882Z,7.02
2023-04-22T01:36:42.301Z,6.92
2023-04-22T01:39:55.148Z,6.96
2023-04-22T01:43:08.799Z,6.95
2023-04-22T01:46:23.537Z,6.93
2023-04-22T01:49:36.142Z,6.88
2023-04-22T01:52:48.666Z,6.81
2023-04-22T01:56:00.902Z,6.78
2023-04-22T01:59:13.420Z,6.72
2023-04-22T02:02:25.669Z,6.64
2023-04-22T02:05:38.197Z,6.60
2023-04-22T02:08:50.272Z,6.61
2023-04-22T02:12:02.309Z,6.57
2023-04-22T02:15:17.169Z,6.48
2023-04-22T02:18:29.676Z,6.40
2023-04-22T02:21:41.995Z,6.39
2023-04-22T02:24:56.164Z,6.37
2023-04-22T02:28:08.593Z,6.37
2023-04-22T02:31:22.101Z,6.36
2023-04-22T02:34:34.803Z,6.34
2023-04-22T02:37:47.049Z,6.29
2023-04-22T02:40:59.129Z,6.22
2023-04-22T02:44:11.691Z,6.21
2023-04-22T02:47:24.783Z,6.23
2023-04-22T02:50:37.188Z,6.21
2023-04-22T02:53:49.692Z,6.16
2023-04-22T02:57:03.122Z,6.16
2023-04-22T03:00:17.774Z,6.14
2023-04-22T03:03:32.250Z,6.14
2023-04-22T03:06:45.070Z,6.13
2023-04-22T03:09:57.077Z,6.03
2023-04-22T03:13:09.228Z,5.98
2023-04-22T03:16:22.572Z,5.95
2023-04-22T03:19:35.226Z,5.94
2023-04-22T03:22:47.750Z,5.95
2023-04-22T03:26:00.199Z,5.90
2023-04-22T03:29:15.462Z,5.87
2023-04-22T03:32:28.548Z,5.84
2023-04-22T03:35:42.770Z,5.87
2023-04-22T03:38:55.569Z,5.85
2023-04-22T03:42:09.080Z,5.84
2023-04-22T03:45:22.346Z,5.81
2023-04-22T03:48:37.574Z,5.78
2023-04-22T03:51:51.488Z,5.77
2023-04-22T03:55:05.378Z,5.77
2023-04-22T03:58:18.290Z,5.79
2023-04-22T04:01:31.432Z,5.71
2023-04-22T04:04:45.825Z,5.80
2023-04-22T04:08:00.049Z,5.81
2023-04-22T04:11:14.314Z,5.89
2023-04-22T04:14:26.403Z,5.97
2023-04-22T04:17:38.946Z,6.04
2023-04-22T04:20:51.844Z,5.94
2023-04-22T04:24:04.362Z,5.88
2023-04-22T04:27:17.743Z,6.02
2023-04-22T04:30:33.662Z,6.14
2023-04-22T04:33:47.828Z,6.24
2023-04-22T04:37:01.165Z,6.34
2023-04-22T04:40:16.994Z,6.38
2023-04-22T04:43:40.903Z,6.57
2023-04-22T04:46:55.077Z,6.60
2023-04-22T04:50:08.524Z,6.73
2023-04-22T04:53:21.233Z,6.86
2023-04-22T04:56:33.643Z,7.00
2023-04-22T04:59:45.858Z,7.14
2023-04-22T05:02:58.380Z,7.26
2023-04-22T05:06:13.124Z,7.37
2023-04-22T05:09:27.492Z,7.48
2023-04-22T05:12:39.808Z,7.65
2023-04-22T05:15:53.024Z,7.74
2023-04-22T05:19:05.438Z,7.82
2023-04-22T05:22:18.788Z,7.84
2023-04-22T05:25:32.965Z,8.06
2023-04-22T05:28:46.990Z,8.33
2023-04-22T05:31:59.501Z,8.56
2023-04-22T05:35:14.263Z,8.82
2023-04-22T05:38:26.623Z,9.02
2023-04-22T05:41:40.069Z,9.21
2023-04-22T05:44:54.151Z,9.50
2023-04-22T05:48:08.581Z,9.79
2023-04-22T05:51:23.812Z,10.04
2023-04-22T05:54:36.404Z,10.29
2023-04-22T05:57:48.862Z,10.61
2023-04-22T06:01:09.488Z,10.75
2023-04-22T06:04:29.967Z,11.04
2023-04-22T06:07:42.661Z,11.34
2023-04-22T06:10:54.952Z,11.65
2023-04-22T06:14:07.905Z,12.16
2023-04-22T06:17:20.490Z,12.76
2023-04-22T06:20:33.726Z,13.16
2023-04-22T06:23:46.540Z,13.58
2023-04-22T06:26:58.955Z,14.43
2023-04-22T06:30:16.107Z,15.54
2023-04-22T06:33:28.488Z,16.19
2023-04-22T06:36:41.408Z,16.44
2023-04-22T06:39:53.506Z,16.70
2023-04-22T06:43:10.113Z,16.97
2023-04-22T06:46:30.068Z,16.88
2023-04-22T06:49:47.295Z,17.03
2023-04-22T06:53:14.252Z,17.40
2023-04-22T06:56:26.856Z,17.63
2023-04-22T06:59:39.499Z,18.12
2023-04-22T07:02:52.092Z,18.97
2023-04-22T07:06:04.714Z,18.92
2023-04-22T07:09:17.463Z,19.02
2023-04-22T07:12:30.321Z,19.33
2023-04-22T07:15:42.733Z,19.06
2023-04-22T07:18:55.629Z,19.02
2023-04-22T07:22:07.910Z,19.66
2023-04-22T07:25:20.340Z,20.17
2023-04-22T07:28:32.553Z,20.32
2023-04-22T07:31:44.775Z,20.59
2023-04-22T07:34:57.274Z,20.48
2023-04-22T07:38:09.851Z,20.40
2023-04-22T07:41:22.813Z,21.14
2023-04-22T07:44:36.121Z,21.30
2023-04-22T07:47:49.326Z,20.71
2023-04-22T07:51:01.384Z,20.93
2023-04-22T07:54:13.792Z,20.67
2023-04-22T07:57:26.062Z,21.07
2023-04-22T08:00:39.303Z,21.42
2023-04-22T08:03:51.777Z,21.74
2023-04-22T08:07:17.077Z,21.69
2023-04-22T08:10:18.998Z,21.65
2023-04-22T08:13:31.228Z,22.06
2023-04-22T08:16:44.108Z,22.34
2023-04-22T08:19:56.199Z,21.85
2023-04-22T08:23:08.374Z,21.77
2023-04-22T08:26:20.673Z,22.11
2023-04-22T08:29:33.501Z,22.40
2023-04-22T08:32:46.007Z,22.41
2023-04-22T08:35:58.786Z,22.94
2023-04-22T08:39:11.605Z,23.08
2023-04-22T08:42:26.143Z,23.22
2023-04-22T08:45:39.370Z,23.17
2023-04-22T08:48:52.054Z,23.29
2023-04-22T08:52:04.279Z,23.42
2023-04-22T08:55:17.361Z,23.52
2023-04-22T08:58:30.319Z,23.63
2023-04-22T09:01:44.038Z,23.85
2023-04-22T09:04:59.134Z,23.82
2023-04-22T09:08:12.248Z,23.99
2023-04-22T09:11:24.757Z,24.41
2023-04-22T09:14:37.332Z,24.02
2023-04-22T09:17:49.756Z,24.08
2023-04-22T09:21:03.896Z,24.29
2023-04-22T09:24:17.392Z,24.43
2023-04-22T09:27:31.881Z,24.80
2023-04-22T09:30:44.272Z,25.25
2023-04-22T09:34:00.985Z,24.69
2023-04-22T09:37:13.306Z,24.94
2023-04-22T09:40:26.516Z,24.66
2023-04-22T09:43:41.264Z,25.02
2023-04-22T09:46:56.304Z,24.43
2023-04-22T09:50:15.731Z,24.46
2023-04-22T09:53:30.186Z,24.31
2023-04-22T09:56:54.805Z,24.70
2023-04-22T10:00:10.832Z,25.44
2023-04-22T10:03:23.701Z,25.77
2023-04-22T10:06:36.625Z,25.29
2023-04-22T10:09:48.903Z,25.67
2023-04-22T10:13:01.587Z,24.94
2023-04-22T10:16:14.755Z,25.19
2023-04-22T10:19:29.663Z,25.03
2023-04-22T10:22:42.493Z,25.46
2023-04-22T10:25:57.803Z,24.39
2023-04-22T10:29:14.025Z,24.89
2023-04-22T10:32:35.663Z,24.83
2023-04-22T10:36:03.662Z,25.06
2023-04-22T10:39:27.028Z,24.78
2023-04-22T10:42:39.564Z,24.54
2023-04-22T10:45:51.771Z,24.31
2023-04-22T10:49:06.663Z,24.49
2023-04-22T10:52:33.498Z,24.28
2023-04-22T10:56:01.181Z,24.11
2023-04-22T10:59:25.131Z,24.20
2023-04-22T11:02:39.916Z,24.38
2023-04-22T11:05:52.820Z,24.11
2023-04-22T11:09:17.740Z,23.96
2023-04-22T11:12:59.173Z,23.89
2023-04-22T11:16:14.036Z,23.89
2023-04-22T11:19:26.475Z,24.36
2023-04-22T11:22:43.385Z,24.30
2023-04-22T11:26:00.925Z,24.25
2023-04-22T11:29:14.377Z,24.52
2023-04-22T11:32:28.737Z,24.44
2023-04-22T11:35:43.043Z,24.23
2023-04-22T11:39:03.417Z,23.76
2023-04-22T11:42:16.632Z,24.15
2023-04-22T11:45:29.628Z,23.99
2023-04-22T11:48:41.656Z,23.81
2023-04-22T11:52:05.105Z,24.36
2023-04-22T11:55:21.020Z,24.19
2023-04-22T11:58:33.972Z,23.90
2023-04-22T12:01:49.433Z,23.71
2023-04-22T12:05:04.204Z,23.25
2023-04-22T12:08:18.870Z,23.89
2023-04-22T12:11:32.335Z,23.95
2023-04-22T12:14:44.783Z,23.91
2023-04-22T12:17:59.213Z,23.69
2023-04-22T12:21:16.893Z,23.90
2023-04-22T12:24:35.349Z,24.24
2023-04-22T12:27:47.748Z,24.32
2023-04-22T12:30:59.992Z,24.01
2023-04-22T12:34:12.142Z,24.28
2023-04-22T12:37:24.769Z,23.71
2023-04-22T12:40:37.107Z,23.50
2023-04-22T12:43:49.391Z,23.74
2023-04-22T12:47:01.530Z,23.40
2023-04-22T12:50:15.336Z,23.04
2023-04-22T12:53:28.905Z,23.50
2023-04-22T12:56:40.982Z,23.69
2023-04-22T12:59:53.709Z,23.42
2023-04-22T13:03:05.837Z,23.91
2023-04-22T13:06:17.992Z,23.80
2023-04-22T13:09:31.776Z,23.64
2023-04-22T13:12:44.046Z,23.42
2023-04-22T13:15:57.285Z,23.42
2023-04-22T13:19:09.698Z,23.22
2023-04-22T13:22:21.834Z,23.22
2023-04-22T13:25:34.117Z,23.47
2023-04-22T13:28:46.531Z,23.13
2023-04-22T13:31:58.697Z,23.32
2023-04-22T13:35:12.951Z,22.98
2023-04-22T13:38:25.052Z,23.27
2023-04-22T13:41:37.401Z,23.43
2023-04-22T13:44:49.527Z,23.40
2023-04-22T13:48:01.956Z,23.47
2023-04-22T13:51:14.800Z,23.10
2023-04-22T13:54:27.556Z,22.82
2023-04-22T13:57:39.519Z,22.77
2023-04-22T14:00:51.812Z,22.93
2023-04-22T14:04:04.164Z,22.61
2023-04-22T14:07:16.592Z,22.48
2023-04-22T14:10:29.205Z,22.44
2023-04-22T14:13:42.167Z,22.53
2023-04-22T14:16:54.512Z,22.75
2023-04-22T14:20:07.666Z,22.32
2023-04-22T14:23:19.891Z,22.56
2023-04-22T14:26:32.937Z,22.32
2023-04-22T14:29:46.034Z,22.29
2023-04-22T14:32:58.345Z,22.36
2023-04-22T14:36:11.675Z,22.17
2023-04-22T14:39:24.305Z,22.28
2023-04-22T14:42:36.725Z,22.17
2023-04-22T14:45:49.666Z,22.20
2023-04-22T14:49:01.850Z,22.10
2023-04-22T14:52:14.753Z,22.11
2023-04-22T14:55:29.386Z,21.94
2023-04-22T14:58:41.253Z,21.79
2023-04-22T15:01:53.803Z,21.80
2023-04-22T15:05:06.027Z,21.72
2023-04-22T15:08:19.366Z,21.72
2023-04-22T15:11:31.369Z,21.76
2023-04-22T15:14:44.294Z,21.65
2023-04-22T15:17:56.622Z,21.49
2023-04-22T15:21:10.889Z,21.25
2023-04-22T15:24:25.111Z,21.27
2023-04-22T15:27:37.635Z,21.23
2023-04-22T15:30:50.447Z,21.15
2023-04-22T15:34:02.686Z,21.09
2023-04-22T15:37:15.808Z,21.03
2023-04-22T15:40:28.609Z,20.94
2023-04-22T15:43:40.918Z,20.87
2023-04-22T15:46:53.948Z,20.78
2023-04-22T15:50:09.106Z,20.71
2023-04-22T15:53:21.934Z,20.55
2023-04-22T15:56:37.725Z,20.47
2023-04-22T15:59:56.308Z,20.44
2023-04-22T16:03:04.737Z,20.38
2023-04-22T16:06:17.485Z,20.29
2023-04-22T16:09:29.535Z,20.17
2023-04-22T16:12:41.733Z,20.13
2023-04-22T16:15:54.279Z,20.04
2023-04-22T16:19:06.772Z,20.03
2023-04-22T16:22:19.094Z,19.87
2023-04-22T16:25:32.114Z,19.77
2023-04-22T16:28:44.536Z,19.61
2023-04-22T16:31:57.886Z,19.46
2023-04-22T16:35:11.624Z,19.45
2023-04-22T16:38:23.842Z,19.36
2023-04-22T16:41:36.210Z,19.30
2023-04-22T16:44:48.508Z,19.20
2023-04-22T16:48:01.227Z,19.10
2023-04-22T16:51:13.902Z,19.00
2023-04-22T16:54:26.433Z,18.92
2023-04-22T16:57:38.902Z,18.85
2023-04-22T17:00:51.416Z,18.71
2023-04-22T17:04:04.112Z,18.66
2023-04-22T17:07:16.518Z,18.59
2023-04-22T17:10:29.169Z,18.53
2023-04-22T17:13:41.444Z,18.41
2023-04-22T17:16:53.630Z,18.33
2023-04-22T17:20:06.674Z,18.15
2023-04-22T17:23:20.083Z,18.04
2023-04-22T17:26:32.215Z,17.96
2023-04-22T17:29:44.452Z,17.90
2023-04-22T17:32:56.695Z,17.82
2023-04-22T17:36:09.355Z,17.71
2023-04-22T17:39:24.549Z,17.61
2023-04-22T17:42:45.661Z,17.50
2023-04-22T17:45:53.026Z,17.41
2023-04-22T17:49:06.025Z,17.24
2023-04-22T17:52:18.477Z,17.13
2023-04-22T17:55:32.819Z,16.93
2023-04-22T17:58:45.135Z,16.73
2023-04-22T18:01:58.977Z,16.57
2023-04-22T18:05:13.926Z,16.50
2023-04-22T18:08:26.130Z,16.41
2023-04-22T18:11:38.971Z,16.29
2023-04-22T18:14:52.310Z,16.18
2023-04-22T18:18:04.543Z,16.08
2023-04-22T18:21:16.810Z,16.07
2023-04-22T18:24:29.236Z,16.07
2023-04-22T18:27:41.697Z,16.13
2023-04-22T18:30:54.792Z,16.07
2023-04-22T18:34:08.416Z,16.11
2023-04-22T18:37:21.344Z,16.03
2023-04-22T18:40:34.273Z,15.92
2023-04-22T18:43:48.008Z,15.81
2023-04-22T18:47:00.615Z,15.73
2023-04-22T18:50:15.266Z,15.70
2023-04-22T18:53:27.606Z,15.63
2023-04-22T18:56:40.091Z,15.53
2023-04-22T18:59:52.641Z,15.56
2023-04-22T19:03:05.765Z,15.42
2023-04-22T19:06:18.296Z,15.22
2023-04-22T19:09:31.824Z,15.13
2023-04-22T19:12:44.866Z,15.09
2023-04-22T19:15:57.431Z,14.98
2023-04-22T19:19:10.162Z,14.85
2023-04-22T19:22:22.486Z,14.87
2023-04-22T19:25:34.884Z,14.84
2023-04-22T19:28:48.896Z,14.78
2023-04-22T19:32:02.122Z,14.69
2023-04-22T19:35:16.736Z,14.59
2023-04-22T19:38:29.163Z,14.53
2023-04-22T19:41:42.486Z,14.42
2023-04-22T19:44:55.199Z,14.42
2023-04-22T19:48:09.618Z,14.40
2023-04-22T19:51:22.618Z,14.41
2023-04-22T19:54:38.362Z,14.41
2023-04-22T19:57:51.496Z,14.33
2023-04-22T20:01:05.145Z,14.26
2023-04-22T20:04:19.645Z,14.21
2023-04-22T20:07:33.111Z,14.23
2023-04-22T20:10:48.265Z,14.16
2023-04-22T20:14:01.965Z,14.05
2023-04-22T20:17:16.208Z,13.95
2023-04-22T20:20:29.655Z,13.62
2023-04-22T20:23:42.420Z,13.41
2023-04-22T20:26:56.584Z,13.17
2023-04-22T20:30:13.158Z,13.04
2023-04-22T20:33:26.133Z,12.90
2023-04-22T20:36:39.292Z,12.77
2023-04-22T20:39:53.477Z,12.73
2023-04-22T20:43:06.114Z,12.69
2023-04-22T20:46:19.727Z,12.73
2023-04-22T20:49:33.394Z,12.69
2023-04-22T20:52:46.046Z,12.57
2023-04-22T20:55:58.258Z,12.46
2023-04-22T20:59:10.803Z,12.42
2023-04-22T21:02:24.990Z,12.38
2023-04-22T21:05:41.200Z,12.21
2023-04-22T21:08:54.982Z,12.26
2023-04-22T21:12:10.698Z,12.29
2023-04-22T21:15:25.993Z,12.19
2023-04-22T21:18:42.128Z,12.07
2023-04-22T21:21:56.160Z,12.05
2023-04-22T21:25:10.028Z,11.97
2023-04-22T21:28:24.298Z,11.83
2023-04-22T21:31:38.065Z,11.72
2023-04-22T21:34:50.345Z,11.72
2023-04-22T21:38:02.535Z,11.66
2023-04-22T21:41:15.453Z,11.52
2023-04-22T21:44:27.618Z,11.50
2023-04-22T21:47:39.902Z,11.49
2023-04-22T21:50:52.584Z,11.47
2023-04-22T21:54:04.999Z,11.41
2023-04-22T21:57:17.310Z,11.30
2023-04-22T22:00:29.509Z,11.33
2023-04-22T22:03:42.118Z,11.27
2023-04-22T22:06:54.582Z,11.22
2023-04-22T22:10:06.604Z,11.22
2023-04-22T22:13:19.065Z,11.16
2023-04-22T22:16:31.458Z,11.09
2023-04-22T22:19:43.648Z,10.97
2023-04-22T22:22:55.876Z,10.96
2023-04-22T22:26:08.520Z,10.88
2023-04-22T22:29:21.010Z,10.79
2023-04-22T22:32:33.129Z,10.82
2023-04-22T22:35:45.633Z,10.71
2023-04-22T22:38:58.753Z,10.66
2023-04-22T22:42:11.128Z,10.64
2023-04-22T22:45:23.475Z,10.63
2023-04-22T22:48:36.189Z,10.67
2023-04-22T22:51:48.652Z,10.55
2023-04-22T22:55:01.022Z,10.50
2023-04-22T22:58:12.978Z,10.43
2023-04-22T23:01:25.164Z,10.39
2023-04-22T23:04:39.592Z,10.41
2023-04-22T23:07:51.725Z,10.32
2023-04-22T23:11:03.787Z,10.24
2023-04-22T23:14:16.581Z,10.19
2023-04-22T23:17:28.634Z,10.25
2023-04-22T23:20:41.446Z,10.18
2023-04-22T23:23:54.675Z,10.14
2023-04-22T23:27:10.182Z,10.13
2023-04-22T23:30:25.071Z,10.11
2023-04-22T23:33:40.328Z,10.08
2023-04-22T23:36:53.424Z,10.00
2023-04-22T23:40:07.024Z,9.92
2023-04-22T23:43:19.375Z,9.85
2023-04-22T23:46:31.756Z,9.86
2023-04-22T23:49:44.032Z,9.77
2023-04-22T23:52:57.625Z,9.66
2023-04-22T23:56:12.207Z,9.54
2023-04-22T23:59:26.296Z,9.48
